Time;durP1;ratioP1;P1;durP2;ratioP2;P2;SDS_P1;SDS_P2;PMS_P1;PMS_P2;Temp;Humidity;BMP_temperature;BMP_pressure;BME280_temperature;BME280_humidity;BME280_pressure;Samples;Min_cycle;Max_cycle;Signal;HPM_P1;HPM_P2
2022/04/07 00:00:34;;;;;;;8.43;3.85;;;;;;;13.37;52.19;98895.16;5097111;28;20036;-65
2022/04/07 00:03:00;;;;;;;4.78;3.50;;;;;;;13.42;52.01;98896.28;5098672;28;20028;-65
2022/04/07 00:05:25;;;;;;;5.05;3.53;;;;;;;13.42;52.43;98895.47;5089182;28;20027;-66
2022/04/07 00:07:50;;;;;;;5.50;3.20;;;;;;;13.46;52.47;98902.13;5097717;28;20028;-65
2022/04/07 00:10:16;;;;;;;5.05;3.50;;;;;;;13.46;52.02;98891.34;5097663;28;20026;-65
2022/04/07 00:12:42;;;;;;;5.70;3.40;;;;;;;13.42;51.72;98882.00;5097932;28;20035;-65
2022/04/07 00:15:09;;;;;;;5.38;3.35;;;;;;;13.48;52.18;98886.63;5099806;28;20531;-65
2022/04/07 00:17:35;;;;;;;5.10;3.30;;;;;;;13.47;51.82;98876.88;5097436;28;20035;-65
2022/04/07 00:20:01;;;;;;;4.05;3.10;;;;;;;13.49;52.31;98872.13;5097430;28;20034;-65
2022/04/07 00:22:27;;;;;;;5.57;3.58;;;;;;;13.52;52.28;98874.44;5091975;28;20027;-65
2022/04/07 00:24:52;;;;;;;4.85;3.47;;;;;;;13.52;52.16;98874.44;5096940;28;20024;-65
2022/04/07 00:27:18;;;;;;;6.57;3.92;;;;;;;13.52;52.08;98869.06;5097184;28;20073;-65
2022/04/07 00:29:43;;;;;;;5.03;3.47;;;;;;;13.52;51.94;98869.06;5098785;28;20073;-65
2022/04/07 00:32:09;;;;;;;6.15;3.75;;;;;;;13.47;52.39;98855.31;5095035;28;20046;-65
2022/04/07 00:34:34;;;;;;;5.40;3.65;;;;;;;13.50;52.49;98860.31;5099806;28;20115;-65
2022/04/07 00:37:00;;;;;;;6.15;4.07;;;;;;;13.51;52.47;98862.00;5097504;28;20066;-65
2022/04/07 00:39:25;;;;;;;5.47;3.85;;;;;;;13.49;52.25;98862.22;5101868;28;20111;-75
2022/04/07 00:41:51;;;;;;;7.45;4.25;;;;;;;13.47;52.52;98850.78;5092410;28;20118;-65
2022/04/07 00:44:17;;;;;;;6.43;3.78;;;;;;;13.45;51.89;98846.59;5097785;28;20043;-65
2022/04/07 00:46:42;;;;;;;6.57;3.50;;;;;;;13.46;52.24;98845.56;5099336;28;20031;-65
2022/04/07 00:49:09;;;;;;;7.25;3.45;;;;;;;13.44;52.24;98842.22;5097118;28;20016;-65
2022/04/07 00:51:38;;;;;;;4.97;3.42;;;;;;;13.46;51.99;98834.81;5089449;28;20490;-65
2022/04/07 00:54:05;;;;;;;5.63;3.53;;;;;;;13.45;52.33;98843.91;5097195;28;20243;-65
2022/04/07 00:56:31;;;;;;;5.40;3.67;;;;;;;13.42;52.50;98836.22;5097551;28;20484;-65
2022/04/07 00:58:57;;;;;;;5.57;3.85;;;;;;;13.42;52.44;98833.53;5087652;28;20019;-65
2022/04/07 01:01:24;;;;;;;4.47;3.30;;;;;;;13.33;52.42;98815.78;5093910;28;20086;-65
2022/04/07 01:03:50;;;;;;;4.47;3.22;;;;;;;13.37;52.39;98814.38;5098995;28;20026;-65
2022/04/07 01:06:18;;;;;;;4.88;3.03;;;;;;;13.31;52.58;98797.13;5096958;28;20075;-65
2022/04/07 01:08:44;;;;;;;3.50;3.20;;;;;;;13.35;52.72;98803.81;5099308;28;20058;-65
2022/04/07 01:11:09;;;;;;;4.38;3.13;;;;;;;13.34;52.24;98795.91;5096611;28;20086;-65
2022/04/07 01:13:50;;;;;;;5.38;3.10;;;;;;;13.34;52.34;98791.38;5098318;28;20082;-65
2022/04/07 01:16:16;;;;;;;4.40;2.85;;;;;;;13.34;52.41;98782.44;5086015;28;20035;-65
2022/04/07 01:18:44;;;;;;;4.50;2.50;;;;;;;13.34;52.33;98777.06;5096462;28;20027;-65
2022/04/07 01:21:11;;;;;;;6.97;3.38;;;;;;;13.40;52.28;98760.16;5099043;28;20479;-65
2022/04/07 01:23:38;;;;;;;4.50;3.50;;;;;;;13.39;52.27;98762.00;5096089;28;20111;-65
2022/04/07 01:26:08;;;;;;;5.47;3.55;;;;;;;13.33;51.99;98741.25;5093770;28;20035;-65
2022/04/07 01:28:35;;;;;;;4.63;3.53;;;;;;;13.36;52.27;98740.03;5098691;28;20509;-65
2022/04/07 01:31:00;;;;;;;4.80;3.45;;;;;;;13.39;52.31;98748.53;5093392;28;20452;-65
2022/04/07 01:33:26;;;;;;;3.75;2.72;;;;;;;13.37;52.14;98744.38;5098490;28;20035;-65
2022/04/07 01:35:52;;;;;;;4.53;3.42;;;;;;;13.40;52.51;98752.06;5095987;28;20812;-65
2022/04/07 01:38:19;;;;;;;4.80;3.35;;;;;;;13.41;52.09;98756.44;5097006;28;20028;-65
2022/04/07 01:40:47;;;;;;;5.05;3.33;;;;;;;13.38;52.40;98757.66;5094860;28;20023;-66
2022/04/07 01:43:14;;;;;;;4.68;3.00;;;;;;;13.39;52.38;98759.31;5086668;28;20055;-66
2022/04/07 01:45:40;;;;;;;4.28;2.90;;;;;;;13.36;51.98;98740.03;5098164;28;20463;-77
2022/04/07 01:48:07;;;;;;;4.57;3.53;;;;;;;13.38;52.38;98748.72;5091777;28;20111;-77
2022/04/07 01:50:34;;;;;;;6.03;3.33;;;;;;;13.37;52.28;98747.06;5080822;28;20047;-76
2022/04/07 01:53:01;;;;;;;3.92;3.13;;;;;;;13.35;52.23;98744.56;5095112;28;20073;-76
2022/04/07 01:55:27;;;;;;;4.95;3.25;;;;;;;13.35;51.87;98738.38;5097548;28;20107;-77
2022/04/07 01:57:53;;;;;;;3.90;3.25;;;;;;;13.35;52.50;98732.97;5093367;28;20049;-76
2022/04/07 02:00:19;;;;;;;4.57;2.75;;;;;;;13.33;52.13;98727.78;5083420;28;20023;-76
2022/04/07 02:02:47;;;;;;;4.65;3.40;;;;;;;13.30;52.57;98705.78;5097498;28;20038;-76
2022/04/07 02:05:13;;;;;;;6.18;3.50;;;;;;;13.32;52.75;98712.63;5093772;28;20027;-76
2022/04/07 02:07:43;;;;;;;3.92;3.33;;;;;;;13.26;53.13;98701.81;5097222;28;20028;-77
2022/04/07 02:10:11;;;;;;;4.65;3.58;;;;;;;13.29;52.79;98693.34;5081567;28;20028;-76
2022/04/07 02:12:37;;;;;;;6.63;3.08;;;;;;;13.23;52.98;98681.47;5096965;28;20028;-76
2022/04/07 02:15:04;;;;;;;5.55;3.90;;;;;;;13.26;53.01;98686.47;5093001;28;20028;-76
2022/04/07 02:17:30;;;;;;;6.15;3.80;;;;;;;13.23;53.29;98686.84;5093385;28;20427;-76
2022/04/07 02:19:59;;;;;;;4.68;3.83;;;;;;;13.25;53.39;98694.72;5097456;28;20028;-76
2022/04/07 02:22:28;;;;;;;4.05;3.03;;;;;;;13.19;53.39;98680.19;5094876;28;20032;-76
2022/04/07 02:24:54;;;;;;;5.63;3.03;;;;;;;13.24;53.52;98687.69;5094495;28;20028;-76
2022/04/07 02:27:20;;;;;;;7.75;4.03;;;;;;;13.21;53.88;98688.06;5097137;28;20040;-76
2022/04/07 02:29:45;;;;;;;6.63;3.60;;;;;;;13.17;53.84;98681.41;5097441;28;20050;-76
2022/04/07 02:32:14;;;;;;;7.32;3.42;;;;;;;13.12;53.41;98673.06;5093278;28;20027;-76
2022/04/07 02:34:40;;;;;;;5.05;3.88;;;;;;;13.12;53.53;98678.44;5093822;28;20028;-76
2022/04/07 02:37:06;;;;;;;4.95;3.58;;;;;;;13.04;53.96;98668.66;5093884;28;20096;-76
2022/04/07 02:39:31;;;;;;;6.13;3.70;;;;;;;13.04;53.90;98663.28;5081823;28;20032;-76
2022/04/07 02:41:57;;;;;;;4.35;3.10;;;;;;;13.06;54.36;98666.59;5094180;28;20028;-76
2022/04/07 02:44:22;;;;;;;4.65;3.25;;;;;;;13.06;54.56;98671.16;5099083;28;20481;-76
2022/04/07 02:46:48;;;;;;;5.55;3.10;;;;;;;13.00;54.33;98656.56;5095444;28;20051;-76
2022/04/07 02:49:13;;;;;;;6.60;3.85;;;;;;;13.03;54.30;98645.44;5094254;28;20119;-66
2022/04/07 02:51:39;;;;;;;5.72;3.28;;;;;;;13.01;54.30;98638.59;5095248;28;20019;-66
2022/04/07 02:54:04;;;;;;;4.95;3.33;;;;;;;12.96;54.20;98632.94;5086586;28;20050;-65
2022/04/07 02:56:30;;;;;;;4.78;3.63;;;;;;;12.99;54.49;98651.38;5094074;28;20031;-66
2022/04/07 02:58:57;;;;;;;4.93;3.42;;;;;;;13.00;54.14;98655.75;5094930;28;20024;-66
2022/04/07 03:01:23;;;;;;;5.10;3.60;;;;;;;13.00;54.57;98645.81;5085230;28;20066;-65
2022/04/07 03:03:49;;;;;;;4.75;3.47;;;;;;;12.97;55.33;98637.28;5096135;28;20063;-66
2022/04/07 03:06:16;;;;;;;6.07;3.60;;;;;;;12.94;55.10;98626.88;5094486;28;20036;-66
2022/04/07 03:08:42;;;;;;;6.32;3.80;;;;;;;12.90;55.12;98604.09;5084286;28;20439;-66
2022/04/07 03:11:09;;;;;;;6.80;3.88;;;;;;;12.94;55.26;98610.75;5095449;28;20026;-66
2022/04/07 03:13:36;;;;;;;4.22;3.33;;;;;;;12.94;55.29;98606.22;5092305;28;20035;-66
2022/04/07 03:16:03;;;;;;;8.82;3.85;;;;;;;12.91;55.39;98605.75;5085162;28;20028;-66
2022/04/07 03:18:28;;;;;;;5.18;3.40;;;;;;;12.87;55.27;98609.84;5094447;28;20028;-65
2022/04/07 03:20:54;;;;;;;4.57;3.35;;;;;;;12.82;55.73;98609.56;5095105;28;20552;-76
2022/04/07 03:23:19;;;;;;;6.20;4.00;;;;;;;12.82;55.73;98606.88;5096335;28;20035;-77
2022/04/07 03:25:46;;;;;;;5.10;3.63;;;;;;;12.74;55.72;98605.13;5094921;28;20329;-76
2022/04/07 03:28:11;;;;;;;5.22;3.88;;;;;;;12.70;56.03;98603.84;5091881;28;20024;-66
2022/04/07 03:30:37;;;;;;;5.97;4.00;;;;;;;12.72;56.22;98612.59;5094246;28;20031;-66
2022/04/07 03:33:03;;;;;;;4.85;3.70;;;;;;;12.71;56.14;98616.28;5085863;28;20043;-66
2022/04/07 03:35:28;;;;;;;5.40;3.80;;;;;;;12.73;56.67;98619.63;5093729;28;20079;-66
2022/04/07 03:37:53;;;;;;;5.10;3.60;;;;;;;12.73;56.71;98619.63;5083508;28;20024;-76
2022/04/07 03:40:19;;;;;;;4.18;3.38;;;;;;;12.64;56.79;98604.59;5101565;28;20035;-77
2022/04/07 03:42:45;;;;;;;6.70;4.07;;;;;;;12.60;56.85;98603.31;5091845;28;20038;-77
2022/04/07 03:45:10;;;;;;;8.32;4.03;;;;;;;12.60;57.12;98599.78;5097158;28;20039;-76
2022/04/07 03:47:36;;;;;;;7.28;3.72;;;;;;;12.61;57.55;98613.06;5082518;28;20112;-66
2022/04/07 03:50:01;;;;;;;6.68;3.65;;;;;;;12.56;57.49;98607.44;5094238;28;20035;-66
2022/04/07 03:52:27;;;;;;;10.93;4.30;;;;;;;12.57;57.97;98619.00;5093895;28;20038;-65
2022/04/07 03:54:52;;;;;;;8.00;4.88;;;;;;;12.46;58.42;98606.03;5084882;28;20512;-66
2022/04/07 03:57:18;;;;;;;11.30;5.20;;;;;;;12.42;58.59;98605.59;5092944;28;20036;-66
2022/04/07 03:59:44;;;;;;;11.75;4.80;;;;;;;12.43;58.41;98630.63;5096706;28;20104;-77
2022/04/07 04:02:10;;;;;;;9.18;5.65;;;;;;;12.36;58.62;98614.41;5096188;28;20107;-77
2022/04/07 04:04:36;;;;;;;24.77;10.30;;;;;;;12.34;58.71;98632.56;5092793;28;20035;-76
2022/04/07 04:07:03;;;;;;;21.05;10.77;;;;;;;12.30;59.38;98627.75;5094371;28;20361;-76
2022/04/07 04:09:28;;;;;;;20.33;10.18;;;;;;;12.22;59.28;98625.19;5097316;28;20023;-76
2022/04/07 04:11:54;;;;;;;22.20;9.32;;;;;;;12.25;59.88;98627.50;5095663;28;20043;-76
2022/04/07 04:14:19;;;;;;;16.42;8.40;;;;;;;12.19;60.74;98622.88;5098414;28;20442;-76
2022/04/07 04:16:45;;;;;;;12.85;7.93;;;;;;;12.14;60.30;98630.63;5080196;28;20063;-76
2022/04/07 04:19:11;;;;;;;18.77;8.02;;;;;;;12.08;60.69;98631.38;5098951;28;20055;-76
2022/04/07 04:21:37;;;;;;;12.80;7.10;;;;;;;12.00;61.15;98626.09;5095643;28;20055;-76
2022/04/07 04:24:03;;;;;;;12.35;6.82;;;;;;;11.98;60.95;98633.50;5097589;28;20059;-76
2022/04/07 04:26:29;;;;;;;11.95;6.88;;;;;;;11.95;60.80;98634.72;5097572;28;20480;-76
2022/04/07 04:28:54;;;;;;;15.13;7.32;;;;;;;11.91;61.78;98632.56;5098839;28;20039;-76
2022/04/07 04:31:24;;;;;;;12.00;7.63;;;;;;;11.85;61.77;98634.16;5096537;28;20032;-76
2022/04/07 04:33:53;;;;;;;11.95;7.63;;;;;;;11.80;62.24;98641.09;5078928;28;20038;-76
2022/04/07 04:36:18;;;;;;;13.75;8.13;;;;;;;11.74;62.53;98639.13;5083519;28;20492;-76
2022/04/07 04:38:44;;;;;;;11.85;7.75;;;;;;;11.69;62.63;98633.47;5098536;28;20287;-76
2022/04/07 04:41:09;;;;;;;12.25;8.40;;;;;;;11.60;62.68;98611.19;5099896;28;20516;-76
2022/04/07 04:43:35;;;;;;;14.43;8.60;;;;;;;11.66;63.21;98625.78;5081886;28;20035;-76
2022/04/07 04:46:00;;;;;;;13.13;8.48;;;;;;;11.60;63.47;98626.50;5098222;28;20059;-76
2022/04/07 04:48:26;;;;;;;14.98;8.70;;;;;;;11.58;64.02;98638.22;5083783;28;20081;-76
2022/04/07 04:50:51;;;;;;;14.50;8.77;;;;;;;11.53;63.95;98637.97;5101468;28;20027;-76
2022/04/07 04:53:16;;;;;;;13.65;8.93;;;;;;;11.47;64.15;98630.63;5098926;28;20024;-76
2022/04/07 04:55:42;;;;;;;12.98;8.43;;;;;;;11.51;64.00;98644.50;5099349;28;20031;-76
2022/04/07 04:58:07;;;;;;;13.07;8.60;;;;;;;11.48;64.36;98636.81;5094833;28;20055;-76
2022/04/07 05:00:33;;;;;;;12.65;7.97;;;;;;;11.48;64.94;98645.72;5094770;28;20024;-75
2022/04/07 05:02:58;;;;;;;14.77;9.10;;;;;;;11.41;64.65;98635.88;5097302;28;20055;-74
2022/04/07 05:05:24;;;;;;;18.45;8.85;;;;;;;11.34;64.96;98630.41;5099766;28;20039;-65
2022/04/07 05:07:49;;;;;;;23.55;9.13;;;;;;;11.22;65.31;98610.38;5096926;28;20043;-71
2022/04/07 05:10:15;;;;;;;14.48;9.68;;;;;;;11.29;66.02;98642.69;5099312;28;20026;-77
2022/04/07 05:12:40;;;;;;;16.00;9.57;;;;;;;11.22;65.69;98629.16;5097196;28;20089;-78
2022/04/07 05:15:07;;;;;;;13.43;10.23;;;;;;;11.19;66.51;98636.75;5082703;28;20019;-79
2022/04/07 05:17:33;;;;;;;17.10;9.68;;;;;;;11.13;66.99;98640.94;5083659;28;20035;-78
2022/04/07 05:19:58;;;;;;;15.32;9.88;;;;;;;11.16;67.58;98653.19;5094218;28;20024;-79
2022/04/07 05:22:24;;;;;;;22.23;10.88;;;;;;;11.09;67.48;98647.69;5081504;28;20028;-78
2022/04/07 05:24:50;;;;;;;16.52;10.48;;;;;;;11.02;67.65;98638.69;5101189;28;20012;-78
2022/04/07 05:27:17;;;;;;;18.00;10.32;;;;;;;11.09;67.91;98669.16;5094134;28;20028;-79
2022/04/07 05:29:42;;;;;;;18.13;10.57;;;;;;;10.99;68.52;98656.97;5079320;28;20464;-78
2022/04/07 05:32:08;;;;;;;19.70;9.88;;;;;;;11.02;69.01;98668.22;5096447;28;20088;-78
2022/04/07 05:34:34;;;;;;;15.85;9.88;;;;;;;10.98;69.43;98672.25;5080599;28;20020;-78
2022/04/07 05:36:59;;;;;;;21.58;10.65;;;;;;;11.03;69.66;98675.22;5100769;28;20040;-78
2022/04/07 05:39:25;;;;;;;17.10;10.70;;;;;;;10.95;69.59;98672.63;5082030;28;20042;-78
2022/04/07 05:41:50;;;;;;;20.75;11.43;;;;;;;11.00;69.92;98675.59;5095986;28;20067;-78
2022/04/07 05:44:16;;;;;;;26.98;12.35;;;;;;;11.03;69.91;98671.72;5076645;28;20048;-79
2022/04/07 05:46:41;;;;;;;20.00;11.40;;;;;;;11.00;69.88;98666.72;5101028;28;20036;-79
2022/04/07 05:49:09;;;;;;;25.27;11.45;;;;;;;10.97;69.72;98667.06;5100510;28;20097;-79
2022/04/07 05:51:34;;;;;;;19.10;11.98;;;;;;;11.02;70.36;98678.09;5100879;28;20035;-79
2022/04/07 05:53:59;;;;;;;25.00;12.30;;;;;;;11.03;70.29;98677.09;5097896;28;20073;-78
2022/04/07 05:56:25;;;;;;;20.45;11.68;;;;;;;11.04;69.99;98687.66;5099897;28;20023;-79
2022/04/07 05:58:50;;;;;;;23.40;11.75;;;;;;;11.00;70.13;98697.03;5098348;28;20028;-79
2022/04/07 06:01:17;;;;;;;17.38;11.35;;;;;;;11.05;70.31;98710.78;5084027;28;20023;-79
2022/04/07 06:03:43;;;;;;;23.10;11.35;;;;;;;11.02;70.01;98702.22;5082933;28;20027;-79
2022/04/07 06:06:08;;;;;;;16.35;10.73;;;;;;;11.04;69.65;98701.06;5081679;28;20115;-77
2022/04/07 06:08:34;;;;;;;13.55;9.82;;;;;;;11.11;69.76;98703.88;5097342;28;20035;-78
2022/04/07 06:11:00;;;;;;;17.25;10.23;;;;;;;11.08;69.46;98694.31;5095489;28;20055;-78
2022/04/07 06:13:25;;;;;;;13.57;9.65;;;;;;;11.10;69.34;98697.66;5079878;28;20558;-78
2022/04/07 06:15:51;;;;;;;11.40;8.77;;;;;;;11.18;69.95;98716.41;5098382;28;21027;-79
2022/04/07 06:18:16;;;;;;;12.15;9.00;;;;;;;11.15;69.99;98692.59;5079015;28;20045;-79
2022/04/07 06:20:42;;;;;;;14.93;8.65;;;;;;;11.19;69.46;98693.91;5107442;28;20032;-79
2022/04/07 06:23:09;;;;;;;14.48;7.47;;;;;;;11.26;69.11;98699.41;5102323;28;20024;-79
2022/04/07 06:25:35;;;;;;;9.30;6.03;;;;;;;11.31;69.66;98705.06;5078224;28;20051;-79
2022/04/07 06:28:02;;;;;;;10.25;6.30;;;;;;;11.29;69.35;98699.06;5081267;28;20466;-79
2022/04/07 06:30:28;;;;;;;10.73;5.30;;;;;;;11.38;69.07;98708.69;5083561;28;20117;-78
2022/04/07 06:32:55;;;;;;;12.27;5.70;;;;;;;11.44;69.62;98714.19;5079390;28;20488;-79
2022/04/07 06:35:20;;;;;;;9.23;5.80;;;;;;;11.52;69.53;98730.22;5086233;28;20024;-79
2022/04/07 06:37:53;;;;;;;10.80;6.40;;;;;;;11.57;69.07;98722.50;5082618;28;20027;-79
2022/04/07 06:40:21;;;;;;;8.80;5.28;;;;;;;11.62;69.19;98713.09;5096409;28;20107;-79
2022/04/07 06:42:51;;;;;;;11.20;6.18;;;;;;;11.65;69.02;98715.41;5093924;28;20028;-79
2022/04/07 06:45:18;;;;;;;15.40;6.40;;;;;;;11.70;69.44;98723.78;5101207;28;20078;-79
2022/04/07 06:47:44;;;;;;;9.82;5.90;;;;;;;11.71;69.26;98710.16;5099709;28;20038;-78
2022/04/07 06:50:11;;;;;;;10.80;6.65;;;;;;;11.79;69.19;98719.97;5081644;28;20020;-78
2022/04/07 06:52:37;;;;;;;13.77;6.20;;;;;;;11.78;68.97;98707.56;5098873;28;20125;-79
2022/04/07 06:55:04;;;;;;;12.13;6.80;;;;;;;11.86;68.44;98708.34;5080289;28;20032;-78
2022/04/07 06:57:30;;;;;;;9.93;6.05;;;;;;;11.85;68.05;98695.09;5077375;28;20565;-79
2022/04/07 06:59:55;;;;;;;16.52;6.68;;;;;;;11.92;68.53;98710.28;5084812;28;20058;-79
2022/04/07 07:02:21;;;;;;;14.18;6.45;;;;;;;11.89;67.85;98689.16;5097405;28;20028;-79
2022/04/07 07:04:46;;;;;;;12.00;6.53;;;;;;;12.03;68.59;98711.72;5093101;28;20027;-78
2022/04/07 07:07:13;;;;;;;10.35;6.65;;;;;;;12.04;68.55;98714.22;5098806;28;20040;-78
2022/04/07 07:09:38;;;;;;;15.65;7.50;;;;;;;12.03;68.20;98709.03;5093270;28;20038;-78
2022/04/07 07:12:04;;;;;;;7.90;6.22;;;;;;;12.04;68.10;98702.63;5090344;28;20035;-77
2022/04/07 07:14:29;;;;;;;10.38;7.28;;;;;;;12.17;68.24;98724.31;5093821;28;20035;-78
2022/04/07 07:16:55;;;;;;;10.77;7.20;;;;;;;12.23;67.59;98728.97;5094958;28;20031;-78
2022/04/07 07:19:26;;;;;;;11.63;7.15;;;;;;;12.19;68.08;98714.25;5081045;28;20024;-78
2022/04/07 07:21:52;;;;;;;12.88;7.53;;;;;;;12.23;68.34;98719.06;5094138;28;20024;-79
2022/04/07 07:24:18;;;;;;;12.82;8.07;;;;;;;12.29;67.60;98722.88;5094378;28;20024;-78
2022/04/07 07:26:45;;;;;;;14.13;7.55;;;;;;;12.33;67.21;98716.94;5090813;28;20028;-78
2022/04/07 07:29:10;;;;;;;14.85;8.50;;;;;;;12.43;67.36;98730.09;5081043;28;20031;-79
2022/04/07 07:31:36;;;;;;;11.82;8.82;;;;;;;12.45;66.98;98720.81;5095750;28;20020;-79
2022/04/07 07:34:03;;;;;;;12.52;7.68;;;;;;;12.49;67.06;98723.97;5084097;28;20024;-78
2022/04/07 07:36:29;;;;;;;15.55;8.60;;;;;;;12.49;66.63;98700.63;5096949;28;20404;-80
2022/04/07 07:38:55;;;;;;;9.82;6.95;;;;;;;12.64;65.92;98722.94;5097124;28;20415;-79
2022/04/07 07:41:21;;;;;;;11.77;7.18;;;;;;;12.58;65.67;98706.75;5095795;28;20102;-78
2022/04/07 07:43:46;;;;;;;10.82;7.53;;;;;;;12.71;65.07;98720.38;5096036;28;20024;-70
2022/04/07 07:46:12;;;;;;;10.18;7.55;;;;;;;12.68;64.88;98702.75;5098946;28;20069;-68
2022/04/07 07:48:37;;;;;;;12.20;7.25;;;;;;;12.80;65.14;98711.19;5101754;28;20032;-69
2022/04/07 07:51:03;;;;;;;11.00;7.63;;;;;;;12.81;64.41;98702.91;5101533;28;20293;-69
2022/04/07 07:53:28;;;;;;;10.18;6.97;;;;;;;12.87;63.33;98707.53;5100305;28;20024;-69
2022/04/07 07:55:54;;;;;;;10.32;7.00;;;;;;;12.96;63.51;98714.47;5097545;28;20051;-69
2022/04/07 07:58:22;;;;;;;11.68;7.20;;;;;;;13.02;62.78;98694.06;5099912;28;20033;-69
2022/04/07 08:00:47;;;;;;;10.10;7.07;;;;;;;13.14;62.29;98709.56;5084514;28;20494;-69
2022/04/07 08:03:13;;;;;;;9.00;6.88;;;;;;;13.08;62.22;98701.38;5096426;28;20036;-69
2022/04/07 08:05:38;;;;;;;10.10;7.03;;;;;;;13.21;61.81;98699.69;5098890;28;20094;-68
2022/04/07 08:08:04;;;;;;;10.32;7.32;;;;;;;13.26;61.77;98702.63;5099613;28;20048;-69
2022/04/07 08:10:30;;;;;;;9.55;7.57;;;;;;;13.43;61.76;98709.44;5096363;28;20107;-69
2022/04/07 08:12:55;;;;;;;10.00;7.20;;;;;;;13.53;61.75;98711.81;5099279;28;20027;-69
2022/04/07 08:15:21;;;;;;;13.45;7.35;;;;;;;13.58;60.82;98701.31;5097915;28;20043;-69
2022/04/07 08:17:46;;;;;;;10.82;7.25;;;;;;;13.72;60.33;98716.56;5101755;28;20015;-69
2022/04/07 08:20:12;;;;;;;11.63;7.43;;;;;;;13.80;60.11;98721.78;5097588;28;20028;-69
2022/04/07 08:22:38;;;;;;;12.00;7.97;;;;;;;13.83;59.73;98715.22;5097469;28;20023;-69
2022/04/07 08:25:04;;;;;;;7.90;6.85;;;;;;;13.90;59.01;98718.78;5097106;28;20253;-69
2022/04/07 08:27:29;;;;;;;9.48;6.65;;;;;;;13.89;58.93;98709.03;5097194;28;20035;-69
2022/04/07 08:29:54;;;;;;;9.65;7.47;;;;;;;13.96;59.09;98705.34;5097360;28;20032;-69
2022/04/07 08:32:20;;;;;;;15.63;7.63;;;;;;;14.00;58.47;98713.91;5096241;28;20019;-69
2022/04/07 08:34:46;;;;;;;14.73;7.10;;;;;;;13.99;58.38;98704.97;5083386;28;20028;-69
2022/04/07 08:37:11;;;;;;;12.50;7.03;;;;;;;13.91;58.16;98688.09;5096084;28;20123;-69
2022/04/07 08:39:37;;;;;;;16.83;7.38;;;;;;;13.99;58.76;98710.34;5099143;28;20380;-69
2022/04/07 08:42:05;;;;;;;10.20;7.40;;;;;;;14.00;58.39;98700.41;5098608;28;20024;-69
2022/04/07 08:44:31;;;;;;;9.05;7.07;;;;;;;14.11;58.04;98724.97;5097268;28;20093;-69
2022/04/07 08:46:58;;;;;;;11.23;7.53;;;;;;;14.12;58.06;98715.84;5096893;28;20038;-69
2022/04/07 08:49:27;;;;;;;12.98;8.27;;;;;;;14.13;58.27;98720.22;5092660;28;20027;-69
2022/04/07 08:51:53;;;;;;;14.35;7.07;;;;;;;14.05;58.40;98704.19;5096887;28;20028;-69
2022/04/07 08:54:20;;;;;;;14.60;7.60;;;;;;;14.15;58.37;98715.47;5083269;28;20028;-69
2022/04/07 08:56:46;;;;;;;14.93;8.13;;;;;;;14.19;58.00;98715.91;5085616;28;20028;-69
2022/04/07 08:59:12;;;;;;;8.63;7.38;;;;;;;14.19;57.71;98711.34;5096003;28;20397;-69
2022/04/07 09:01:37;;;;;;;12.05;8.05;;;;;;;14.21;58.09;98711.97;5098698;28;20028;-69
2022/04/07 09:04:03;;;;;;;13.07;8.10;;;;;;;14.23;58.14;98715.34;5096838;28;20067;-69
2022/04/07 09:06:29;;;;;;;9.60;7.30;;;;;;;14.26;57.98;98714.13;5097277;28;20031;-68
2022/04/07 09:08:54;;;;;;;10.80;7.70;;;;;;;14.29;57.82;98695.69;5086689;28;20156;-68
2022/04/07 09:11:21;;;;;;;14.88;8.93;;;;;;;14.22;57.67;98692.06;5093625;28;20028;-69
2022/04/07 09:13:47;;;;;;;10.55;7.90;;;;;;;14.21;57.34;98701.19;5085622;28;20024;-69
2022/04/07 09:16:14;;;;;;;10.15;7.55;;;;;;;14.24;57.56;98698.13;5097346;28;20491;-69
2022/04/07 09:18:45;;;;;;;9.60;7.65;;;;;;;14.25;57.74;98701.69;5084706;28;20031;-69
2022/04/07 09:21:21;;;;;;;13.50;8.02;;;;;;;14.25;57.47;98693.59;5092176;28;20035;-69
2022/04/07 09:23:47;;;;;;;11.75;8.65;;;;;;;14.26;57.54;98693.41;5094397;28;20106;-70
2022/04/07 09:26:14;;;;;;;11.63;8.02;;;;;;;14.24;57.77;98684.66;5097605;28;20032;-79
2022/04/07 09:28:40;;;;;;;11.40;7.53;;;;;;;14.33;57.23;98679.94;5093571;28;20480;-78
2022/04/07 09:31:06;;;;;;;11.27;8.15;;;;;;;14.36;56.23;98684.94;5095927;28;20027;-79
2022/04/07 09:33:32;;;;;;;10.10;7.80;;;;;;;14.40;56.94;98695.13;5093184;28;20082;-79
2022/04/07 09:35:59;;;;;;;12.05;8.70;;;;;;;14.45;56.88;98694.53;5092894;28;20075;-78
2022/04/07 09:38:25;;;;;;;15.10;8.32;;;;;;;14.47;56.80;98687.06;5091422;28;20250;-78
2022/04/07 09:40:51;;;;;;;10.23;7.72;;;;;;;14.45;56.79;98672.97;5093283;28;20063;-78
2022/04/07 09:43:17;;;;;;;10.85;8.18;;;;;;;14.59;56.11;98683.63;5098332;28;20084;-78
2022/04/07 09:45:45;;;;;;;11.13;7.75;;;;;;;14.51;56.62;98672.16;5082150;28;20043;-69
2022/04/07 09:48:17;;;;;;;12.05;7.80;;;;;;;14.57;56.50;98669.50;5089536;28;20049;-69
2022/04/07 09:51:04;;;;;;;12.10;8.45;;;;;;;14.69;56.00;98681.38;5086826;28;20085;-69
2022/04/07 09:53:37;;;;;;;11.95;9.23;;;;;;;14.72;56.21;98672.06;5095713;28;20023;-69
2022/04/07 09:56:07;;;;;;;14.97;9.40;;;;;;;14.71;56.13;98663.16;5098048;28;20376;-69
2022/04/07 09:58:35;;;;;;;12.15;8.60;;;;;;;14.82;56.37;98670.66;5097647;28;20260;-69
2022/04/07 10:01:04;;;;;;;14.90;9.63;;;;;;;14.90;55.28;98670.47;5082769;28;20031;-69
2022/04/07 10:03:31;;;;;;;10.68;8.13;;;;;;;14.93;55.28;98670.06;5094416;28;20040;-69
2022/04/07 10:05:59;;;;;;;10.70;8.27;;;;;;;14.86;55.22;98658.41;5096136;28;20032;-69
2022/04/07 10:08:26;;;;;;;12.07;8.10;;;;;;;14.99;55.57;98671.94;5095446;28;20040;-69
2022/04/07 10:10:54;;;;;;;11.82;8.80;;;;;;;15.08;55.07;98670.75;5096858;28;20031;-69
2022/04/07 10:13:20;;;;;;;17.23;9.48;;;;;;;15.13;54.96;98649.34;5095332;28;20028;-69
2022/04/07 10:15:49;;;;;;;10.98;8.32;;;;;;;15.23;54.43;98663.31;5089738;28;20016;-78
2022/04/07 10:18:27;;;;;;;13.38;9.20;;;;;;;15.26;54.43;98651.25;5083148;28;20526;-76
2022/04/07 10:20:57;;;;;;;9.45;8.45;;;;;;;15.38;54.44;98657.78;5098796;28;20129;-76
2022/04/07 10:23:50;;;;;;;10.60;8.40;;;;;;;15.43;54.41;98650.72;5074613;28;20544;-77
2022/04/07 10:26:17;;;;;;;13.38;9.30;;;;;;;15.56;54.33;98642.63;5094551;28;20020;-77
2022/04/07 10:28:53;;;;;;;14.05;9.38;;;;;;;15.67;53.69;98650.09;5094255;28;20055;-78
2022/04/07 10:31:18;;;;;;;14.20;9.38;;;;;;;15.77;53.51;98647.81;5081949;28;20031;-77
2022/04/07 10:33:46;;;;;;;15.07;8.95;;;;;;;15.87;53.15;98655.50;5085765;28;20825;-71
2022/04/07 10:36:16;;;;;;;11.35;7.82;;;;;;;15.99;52.91;98653.00;5093764;28;20488;-76
2022/04/07 10:38:47;;;;;;;13.95;8.50;;;;;;;16.09;51.97;98653.41;5080436;28;20100;-77
2022/04/07 10:41:38;;;;;;;10.80;8.57;;;;;;;16.11;51.77;98654.84;5089165;28;20162;-76
2022/04/07 10:44:14;;;;;;;13.77;8.38;;;;;;;16.14;51.91;98659.00;5089462;28;20047;-76
2022/04/07 10:46:40;;;;;;;12.55;8.70;;;;;;;16.09;51.85;98642.59;5090842;28;20032;-76
2022/04/07 10:49:07;;;;;;;9.38;7.78;;;;;;;16.15;51.67;98656.09;5094482;28;20402;-77
2022/04/07 10:51:50;;;;;;;15.77;9.25;;;;;;;16.13;51.64;98650.06;5096746;28;20031;-77
2022/04/07 10:54:15;;;;;;;11.43;9.15;;;;;;;16.02;51.63;98634.47;5094123;28;20436;-76
2022/04/07 10:56:49;;;;;;;11.15;9.05;;;;;;;16.13;51.96;98657.34;5094016;28;20049;-76
2022/04/07 10:59:19;;;;;;;10.93;8.57;;;;;;;16.12;51.68;98653.78;5094905;28;20525;-77
2022/04/07 11:01:44;;;;;;;9.52;7.40;;;;;;;16.14;51.76;98654.44;5095559;28;20036;-76
2022/04/07 11:04:16;;;;;;;10.75;8.25;;;;;;;16.16;51.24;98646.09;5092052;28;20032;-76
2022/04/07 11:09:52;;;;;;;8.88;7.03;;;;;;;16.08;51.46;98647.16;5094460;28;20032;-76
2022/04/07 11:12:34;;;;;;;10.68;7.13;;;;;;;16.03;51.35;98646.97;5095810;28;20076;-76
2022/04/07 11:15:03;;;;;;;10.75;7.72;;;;;;;16.07;51.23;98647.38;5084882;28;20047;-76
2022/04/07 11:17:37;;;;;;;10.90;7.28;;;;;;;16.05;50.91;98649.47;5075628;28;20031;-76
2022/04/07 11:20:15;;;;;;;9.30;7.13;;;;;;;16.04;50.91;98651.31;5097447;28;20419;-76
2022/04/07 11:23:04;;;;;;;12.80;8.13;;;;;;;16.04;51.06;98659.44;5097782;28;20035;-76
2022/04/07 11:25:39;;;;;;;9.32;7.97;;;;;;;16.03;51.06;98659.66;5082954;28;20032;-76
2022/04/07 11:28:19;;;;;;;10.63;7.25;;;;;;;15.98;51.30;98660.28;5098472;28;20058;-76
2022/04/07 11:31:02;;;;;;;11.65;8.10;;;;;;;16.02;51.34;98658.81;5101101;28;20039;-77